Terminal Aerodrome Forecast
Issued by NWS

Home | Current Version | Previous Version | Text Only | Print | Product List | Glossary On
Versions: 1 2 3 4 5 6 7 8 9 10 11 12 13 14 15 16 17 18 19 20 21 22 23 24 25 26 27 28 29 30
899
FTUS45 KLKN 261728
TAFTPH
TAF
KTPH 261728Z 2618/2718 VRB06KT P6SM VCTS BKN100CB
     FM262000 18013G23KT P6SM VCTS SCT080CB BKN100
     FM270300 18006KT P6SM VCSH SCT080 BKN100
     FM270700 34005KT P6SM SCT100=

USA.gov is the U.S. government's official web portal to all federal, state and local government web resources and services.